sensor_id;sensor_type;location;lat;lon;timestamp;pressure;altitude;pressure_sealevel;temperature;humidity
5883;BME280;2967;51.488;6.618;2022-08-03T00:00:51;101254.06;;;22.16;100.00
5883;BME280;2967;51.488;6.618;2022-08-03T00:05:55;101256.88;;;22.40;100.00
5883;BME280;2967;51.488;6.618;2022-08-03T00:11:05;101260.81;;;21.86;100.00
5883;BME280;2967;51.488;6.618;2022-08-03T00:16:08;101253.94;;;22.25;100.00
5883;BME280;2967;51.488;6.618;2022-08-03T00:21:13;101234.22;;;22.25;100.00
5883;BME280;2967;51.488;6.618;2022-08-03T00:26:16;101253.69;;;22.44;100.00
5883;BME280;2967;51.488;6.618;2022-08-03T00:31:18;101251.50;;;22.40;100.00
5883;BME280;2967;51.488;6.618;2022-08-03T00:36:42;101240.53;;;21.49;100.00
5883;BME280;2967;51.488;6.618;2022-08-03T00:41:45;101235.41;;;21.89;100.00
5883;BME280;2967;51.488;6.618;2022-08-03T00:46:49;101245.88;;;21.67;100.00
5883;BME280;2967;51.488;6.618;2022-08-03T00:51:53;101241.41;;;21.75;100.00
5883;BME280;2967;51.488;6.618;2022-08-03T00:56:55;101230.97;;;21.55;100.00
5883;BME280;2967;51.488;6.618;2022-08-03T01:02:00;101240.75;;;21.81;100.00
5883;BME280;2967;51.488;6.618;2022-08-03T01:07:12;101232.56;;;21.98;100.00
5883;BME280;2967;51.488;6.618;2022-08-03T01:12:24;101225.22;;;22.00;100.00
5883;BME280;2967;51.488;6.618;2022-08-03T01:17:33;101230.00;;;22.22;100.00
5883;BME280;2967;51.488;6.618;2022-08-03T01:23:20;101239.00;;;21.72;100.00
5883;BME280;2967;51.488;6.618;2022-08-03T01:28:41;101228.97;;;21.82;100.00
5883;BME280;2967;51.488;6.618;2022-08-03T01:33:55;101228.94;;;21.31;100.00
5883;BME280;2967;51.488;6.618;2022-08-03T01:39:00;101220.03;;;21.56;100.00
5883;BME280;2967;51.488;6.618;2022-08-03T01:44:07;101216.22;;;21.16;100.00
5883;BME280;2967;51.488;6.618;2022-08-03T01:49:36;101213.06;;;21.46;100.00
5883;BME280;2967;51.488;6.618;2022-08-03T01:54:42;101212.88;;;21.98;100.00
5883;BME280;2967;51.488;6.618;2022-08-03T01:59:47;101220.25;;;21.63;100.00
5883;BME280;2967;51.488;6.618;2022-08-03T02:04:54;101217.88;;;21.85;100.00
5883;BME280;2967;51.488;6.618;2022-08-03T02:09:58;101218.22;;;21.90;100.00
5883;BME280;2967;51.488;6.618;2022-08-03T02:15:02;101222.19;;;21.27;100.00
5883;BME280;2967;51.488;6.618;2022-08-03T02:20:10;101221.34;;;21.70;100.00
5883;BME280;2967;51.488;6.618;2022-08-03T02:25:15;101214.09;;;21.70;100.00
5883;BME280;2967;51.488;6.618;2022-08-03T02:30:18;101223.44;;;21.83;100.00
5883;BME280;2967;51.488;6.618;2022-08-03T02:35:25;101213.81;;;21.56;100.00
5883;BME280;2967;51.488;6.618;2022-08-03T02:40:31;101212.41;;;21.69;100.00
5883;BME280;2967;51.488;6.618;2022-08-03T02:45:35;101217.66;;;21.71;100.00
5883;BME280;2967;51.488;6.618;2022-08-03T02:50:48;101186.88;;;21.56;100.00
5883;BME280;2967;51.488;6.618;2022-08-03T02:55:54;101209.28;;;21.89;100.00
5883;BME280;2967;51.488;6.618;2022-08-03T03:00:58;101205.03;;;21.54;100.00
5883;BME280;2967;51.488;6.618;2022-08-03T03:06:04;101200.63;;;21.02;100.00
5883;BME280;2967;51.488;6.618;2022-08-03T03:11:07;101209.75;;;21.09;100.00
5883;BME280;2967;51.488;6.618;2022-08-03T03:16:12;101214.81;;;21.55;100.00
5883;BME280;2967;51.488;6.618;2022-08-03T03:21:18;101209.28;;;21.31;100.00
5883;BME280;2967;51.488;6.618;2022-08-03T03:26:22;101210.44;;;21.28;100.00
5883;BME280;2967;51.488;6.618;2022-08-03T03:31:25;101204.09;;;21.37;100.00
5883;BME280;2967;51.488;6.618;2022-08-03T03:36:29;101197.31;;;21.58;100.00
5883;BME280;2967;51.488;6.618;2022-08-03T03:41:31;101204.94;;;21.38;100.00
5883;BME280;2967;51.488;6.618;2022-08-03T03:46:36;101198.19;;;21.34;100.00
5883;BME280;2967;51.488;6.618;2022-08-03T03:51:40;101204.91;;;21.12;100.00
5883;BME280;2967;51.488;6.618;2022-08-03T03:56:43;101206.03;;;21.02;100.00
5883;BME280;2967;51.488;6.618;2022-08-03T04:01:45;101202.22;;;21.12;100.00
5883;BME280;2967;51.488;6.618;2022-08-03T04:07:00;101207.47;;;21.14;100.00
5883;BME280;2967;51.488;6.618;2022-08-03T04:12:23;101208.81;;;21.18;100.00
5883;BME280;2967;51.488;6.618;2022-08-03T04:17:28;101210.03;;;21.41;100.00
5883;BME280;2967;51.488;6.618;2022-08-03T04:22:33;101209.75;;;21.52;100.00
5883;BME280;2967;51.488;6.618;2022-08-03T04:27:38;101181.41;;;21.40;100.00
5883;BME280;2967;51.488;6.618;2022-08-03T04:32:41;101210.97;;;21.57;100.00
5883;BME280;2967;51.488;6.618;2022-08-03T04:37:49;101213.81;;;21.56;100.00
5883;BME280;2967;51.488;6.618;2022-08-03T04:42:53;101213.84;;;21.63;100.00
5883;BME280;2967;51.488;6.618;2022-08-03T04:47:58;101209.38;;;21.72;100.00
5883;BME280;2967;51.488;6.618;2022-08-03T04:53:05;101216.28;;;21.24;100.00
5883;BME280;2967;51.488;6.618;2022-08-03T04:58:08;101184.13;;;21.22;100.00
5883;BME280;2967;51.488;6.618;2022-08-03T05:03:11;101228.72;;;21.25;100.00
5883;BME280;2967;51.488;6.618;2022-08-03T05:08:26;101229.75;;;21.24;100.00
5883;BME280;2967;51.488;6.618;2022-08-03T05:13:29;101227.84;;;21.42;100.00
5883;BME280;2967;51.488;6.618;2022-08-03T05:18:31;101235.00;;;21.58;100.00
5883;BME280;2967;51.488;6.618;2022-08-03T05:23:35;101240.00;;;21.71;100.00
5883;BME280;2967;51.488;6.618;2022-08-03T05:28:38;101247.63;;;21.75;100.00
5883;BME280;2967;51.488;6.618;2022-08-03T05:33:51;101246.34;;;21.87;100.00
5883;BME280;2967;51.488;6.618;2022-08-03T05:38:56;101237.97;;;21.98;100.00
5883;BME280;2967;51.488;6.618;2022-08-03T05:44:03;101235.97;;;22.00;100.00
5883;BME280;2967;51.488;6.618;2022-08-03T05:49:06;101231.31;;;22.10;100.00
5883;BME280;2967;51.488;6.618;2022-08-03T05:54:11;101240.25;;;22.19;100.00
5883;BME280;2967;51.488;6.618;2022-08-03T05:59:13;101235.72;;;22.27;100.00
5883;BME280;2967;51.488;6.618;2022-08-03T06:04:36;101245.59;;;22.44;100.00
5883;BME280;2967;51.488;6.618;2022-08-03T06:09:40;101239.88;;;22.47;100.00
5883;BME280;2967;51.488;6.618;2022-08-03T06:15:04;101241.25;;;22.51;100.00
5883;BME280;2967;51.488;6.618;2022-08-03T06:20:11;101244.47;;;22.63;100.00
5883;BME280;2967;51.488;6.618;2022-08-03T06:25:16;101238.94;;;22.72;100.00
5883;BME280;2967;51.488;6.618;2022-08-03T06:30:22;101245.03;;;22.82;100.00
5883;BME280;2967;51.488;6.618;2022-08-03T06:35:24;101254.81;;;22.91;100.00
5883;BME280;2967;51.488;6.618;2022-08-03T06:40:29;101250.41;;;22.98;100.00
5883;BME280;2967;51.488;6.618;2022-08-03T06:45:33;101252.09;;;23.07;100.00
5883;BME280;2967;51.488;6.618;2022-08-03T06:50:39;101256.88;;;23.21;100.00
5883;BME280;2967;51.488;6.618;2022-08-03T06:55:44;101254.69;;;23.33;100.00
5883;BME280;2967;51.488;6.618;2022-08-03T07:00:51;101252.47;;;23.36;100.00
5883;BME280;2967;51.488;6.618;2022-08-03T07:05:54;101257.22;;;23.42;100.00
5883;BME280;2967;51.488;6.618;2022-08-03T07:10:58;101256.19;;;23.51;100.00
5883;BME280;2967;51.488;6.618;2022-08-03T07:16:01;101262.41;;;23.68;100.00
5883;BME280;2967;51.488;6.618;2022-08-03T07:21:03;101273.34;;;23.82;100.00
5883;BME280;2967;51.488;6.618;2022-08-03T07:26:09;101276.09;;;23.90;100.00
5883;BME280;2967;51.488;6.618;2022-08-03T07:31:12;101280.63;;;23.98;100.00
5883;BME280;2967;51.488;6.618;2022-08-03T07:36:14;101275.00;;;24.07;100.00
5883;BME280;2967;51.488;6.618;2022-08-03T07:41:18;101276.31;;;24.19;100.00
5883;BME280;2967;51.488;6.618;2022-08-03T07:46:21;101282.00;;;24.32;100.00
5883;BME280;2967;51.488;6.618;2022-08-03T07:51:27;101289.53;;;24.45;100.00
5883;BME280;2967;51.488;6.618;2022-08-03T07:56:31;101274.47;;;24.58;100.00
5883;BME280;2967;51.488;6.618;2022-08-03T08:01:33;101285.25;;;24.66;100.00
5883;BME280;2967;51.488;6.618;2022-08-03T08:06:38;101274.38;;;24.74;99.43
5883;BME280;2967;51.488;6.618;2022-08-03T08:11:43;101284.16;;;24.83;99.28
5883;BME280;2967;51.488;6.618;2022-08-03T08:16:45;101292.69;;;24.94;98.35
5883;BME280;2967;51.488;6.618;2022-08-03T08:21:48;101289.38;;;25.07;97.75
5883;BME280;2967;51.488;6.618;2022-08-03T08:27:04;101284.28;;;25.12;97.82
5883;BME280;2967;51.488;6.618;2022-08-03T08:32:11;101287.28;;;25.17;97.81
5883;BME280;2967;51.488;6.618;2022-08-03T08:37:16;101284.41;;;25.18;98.33
5883;BME280;2967;51.488;6.618;2022-08-03T08:42:20;101274.41;;;25.41;97.15
5883;BME280;2967;51.488;6.618;2022-08-03T08:47:24;101276.69;;;25.52;97.73
5883;BME280;2967;51.488;6.618;2022-08-03T08:52:28;101274.06;;;25.59;97.20
5883;BME280;2967;51.488;6.618;2022-08-03T08:57:35;101267.44;;;25.61;95.83
5883;BME280;2967;51.488;6.618;2022-08-03T09:02:44;101267.19;;;25.71;95.92
5883;BME280;2967;51.488;6.618;2022-08-03T09:07:48;101270.94;;;25.84;94.96
5883;BME280;2967;51.488;6.618;2022-08-03T09:12:52;101265.63;;;26.05;93.24
5883;BME280;2967;51.488;6.618;2022-08-03T09:17:57;101268.25;;;25.99;92.40
5883;BME280;2967;51.488;6.618;2022-08-03T09:23:02;101261.81;;;26.00;92.19
5883;BME280;2967;51.488;6.618;2022-08-03T09:28:32;101273.88;;;25.97;93.21
5883;BME280;2967;51.488;6.618;2022-08-03T09:33:55;101273.41;;;26.23;89.00
5883;BME280;2967;51.488;6.618;2022-08-03T09:39:02;101271.44;;;26.31;89.18
5883;BME280;2967;51.488;6.618;2022-08-03T09:44:07;101277.59;;;26.54;86.72
5883;BME280;2967;51.488;6.618;2022-08-03T09:49:26;101272.91;;;26.63;85.20
5883;BME280;2967;51.488;6.618;2022-08-03T09:54:30;101266.34;;;26.72;85.79
5883;BME280;2967;51.488;6.618;2022-08-03T09:59:34;101262.94;;;26.70;86.60
5883;BME280;2967;51.488;6.618;2022-08-03T10:04:46;101274.22;;;26.88;84.42
5883;BME280;2967;51.488;6.618;2022-08-03T10:09:56;101261.88;;;26.85;85.39
5883;BME280;2967;51.488;6.618;2022-08-03T10:15:20;101261.28;;;27.11;84.26
5883;BME280;2967;51.488;6.618;2022-08-03T10:20:45;101260.72;;;26.94;84.87
5883;BME280;2967;51.488;6.618;2022-08-03T10:25:53;101260.41;;;27.04;84.39
5883;BME280;2967;51.488;6.618;2022-08-03T10:31:01;101225.94;;;27.04;84.07
5883;BME280;2967;51.488;6.618;2022-08-03T10:36:08;101246.72;;;27.12;84.86
5883;BME280;2967;51.488;6.618;2022-08-03T10:41:12;101245.63;;;27.27;84.15
5883;BME280;2967;51.488;6.618;2022-08-03T10:46:18;101237.25;;;27.29;84.75
5883;BME280;2967;51.488;6.618;2022-08-03T10:51:22;101199.56;;;26.98;84.93
5883;BME280;2967;51.488;6.618;2022-08-03T10:56:39;101232.59;;;27.44;83.26
5883;BME280;2967;51.488;6.618;2022-08-03T11:02:10;101226.31;;;27.43;82.50
5883;BME280;2967;51.488;6.618;2022-08-03T11:07:19;101228.78;;;27.38;83.65
5883;BME280;2967;51.488;6.618;2022-08-03T11:12:24;101216.69;;;27.68;78.39
5883;BME280;2967;51.488;6.618;2022-08-03T11:17:34;101216.88;;;28.00;75.91
5883;BME280;2967;51.488;6.618;2022-08-03T11:22:56;101219.59;;;28.00;75.43
5883;BME280;2967;51.488;6.618;2022-08-03T11:28:25;101217.94;;;27.99;78.17
5883;BME280;2967;51.488;6.618;2022-08-03T11:33:30;101215.03;;;28.07;77.21
5883;BME280;2967;51.488;6.618;2022-08-03T11:38:33;101215.53;;;28.24;77.14
5883;BME280;2967;51.488;6.618;2022-08-03T11:43:45;101206.31;;;28.25;75.16
5883;BME280;2967;51.488;6.618;2022-08-03T11:48:49;101210.78;;;28.32;75.11
5883;BME280;2967;51.488;6.618;2022-08-03T11:53:57;101210.19;;;28.37;75.19
5883;BME280;2967;51.488;6.618;2022-08-03T11:59:00;101207.78;;;28.68;75.47
5883;BME280;2967;51.488;6.618;2022-08-03T12:04:23;101216.13;;;28.66;71.32
5883;BME280;2967;51.488;6.618;2022-08-03T12:09:27;101191.44;;;28.61;71.82
5883;BME280;2967;51.488;6.618;2022-08-03T12:14:30;101196.47;;;28.77;75.53
5883;BME280;2967;51.488;6.618;2022-08-03T12:19:53;101202.78;;;28.91;72.14
5883;BME280;2967;51.488;6.618;2022-08-03T12:24:56;101202.78;;;28.84;75.00
5883;BME280;2967;51.488;6.618;2022-08-03T12:29:59;101196.31;;;28.98;75.05
5883;BME280;2967;51.488;6.618;2022-08-03T12:35:05;101188.56;;;29.02;72.67
5883;BME280;2967;51.488;6.618;2022-08-03T12:40:08;101190.88;;;29.24;70.68
5883;BME280;2967;51.488;6.618;2022-08-03T12:45:21;101183.94;;;29.48;69.76
5883;BME280;2967;51.488;6.618;2022-08-03T12:50:29;101176.41;;;29.56;71.25
5883;BME280;2967;51.488;6.618;2022-08-03T12:55:33;101180.38;;;29.67;69.00
5883;BME280;2967;51.488;6.618;2022-08-03T13:00:56;101181.13;;;30.00;67.79
5883;BME280;2967;51.488;6.618;2022-08-03T13:06:00;101177.53;;;30.06;67.24
5883;BME280;2967;51.488;6.618;2022-08-03T13:11:19;101172.09;;;30.12;64.74
5883;BME280;2967;51.488;6.618;2022-08-03T13:16:23;101181.75;;;30.08;63.75
5883;BME280;2967;51.488;6.618;2022-08-03T13:21:27;101179.59;;;30.23;63.06
5883;BME280;2967;51.488;6.618;2022-08-03T13:26:29;101185.19;;;30.35;62.91
5883;BME280;2967;51.488;6.618;2022-08-03T13:31:32;101182.81;;;30.45;65.63
5883;BME280;2967;51.488;6.618;2022-08-03T13:36:36;101180.44;;;30.61;65.49
5883;BME280;2967;51.488;6.618;2022-08-03T13:41:59;101181.69;;;30.65;65.06
5883;BME280;2967;51.488;6.618;2022-08-03T13:47:01;101164.34;;;30.84;61.91
5883;BME280;2967;51.488;6.618;2022-08-03T13:52:06;101169.53;;;31.16;59.84
5883;BME280;2967;51.488;6.618;2022-08-03T13:57:08;101164.88;;;31.23;60.68
5883;BME280;2967;51.488;6.618;2022-08-03T14:02:32;101159.44;;;31.41;60.71
5883;BME280;2967;51.488;6.618;2022-08-03T14:07:36;101161.03;;;31.49;58.69
5883;BME280;2967;51.488;6.618;2022-08-03T14:12:39;101161.56;;;31.82;58.22
5883;BME280;2967;51.488;6.618;2022-08-03T14:17:45;101165.03;;;32.07;55.39
5883;BME280;2967;51.488;6.618;2022-08-03T14:22:51;101159.81;;;32.23;58.24
5883;BME280;2967;51.488;6.618;2022-08-03T14:27:55;101155.28;;;32.11;55.28
5883;BME280;2967;51.488;6.618;2022-08-03T14:32:58;101148.78;;;31.94;56.04
5883;BME280;2967;51.488;6.618;2022-08-03T14:38:02;101139.19;;;31.67;58.59
5883;BME280;2967;51.488;6.618;2022-08-03T14:43:05;101145.22;;;31.33;58.75
5883;BME280;2967;51.488;6.618;2022-08-03T14:48:07;101136.84;;;31.28;59.64
5883;BME280;2967;51.488;6.618;2022-08-03T14:53:33;101141.34;;;31.40;59.01
5883;BME280;2967;51.488;6.618;2022-08-03T14:58:36;101117.94;;;31.44;61.64
5883;BME280;2967;51.488;6.618;2022-08-03T15:03:38;101121.88;;;31.06;63.88
5883;BME280;2967;51.488;6.618;2022-08-03T15:08:42;101106.44;;;30.69;72.61
5883;BME280;2967;51.488;6.618;2022-08-03T15:14:06;101108.53;;;30.36;67.05
5883;BME280;2967;51.488;6.618;2022-08-03T15:19:10;101096.47;;;30.13;65.62
5883;BME280;2967;51.488;6.618;2022-08-03T15:24:34;101097.41;;;29.87;70.02
5883;BME280;2967;51.488;6.618;2022-08-03T15:29:36;101099.50;;;29.92;67.50
5883;BME280;2967;51.488;6.618;2022-08-03T15:34:59;101099.97;;;29.82;69.67
5883;BME280;2967;51.488;6.618;2022-08-03T15:40:04;101099.44;;;29.48;75.74
5883;BME280;2967;51.488;6.618;2022-08-03T15:45:07;101100.06;;;29.50;68.57
5883;BME280;2967;51.488;6.618;2022-08-03T15:50:13;101093.78;;;29.49;74.35
5883;BME280;2967;51.488;6.618;2022-08-03T15:55:17;101082.28;;;29.21;77.81
5883;BME280;2967;51.488;6.618;2022-08-03T16:00:20;101077.91;;;28.94;77.28
5883;BME280;2967;51.488;6.618;2022-08-03T16:05:34;101081.66;;;28.87;78.95
5883;BME280;2967;51.488;6.618;2022-08-03T16:10:38;101059.22;;;28.85;72.00
5883;BME280;2967;51.488;6.618;2022-08-03T16:15:41;101075.38;;;29.12;69.53
5883;BME280;2967;51.488;6.618;2022-08-03T16:20:44;101080.00;;;29.05;76.11
5883;BME280;2967;51.488;6.618;2022-08-03T16:25:48;101065.31;;;28.74;80.13
5883;BME280;2967;51.488;6.618;2022-08-03T16:30:51;101066.78;;;28.63;77.93
5883;BME280;2967;51.488;6.618;2022-08-03T16:35:54;101070.53;;;28.49;77.63
5883;BME280;2967;51.488;6.618;2022-08-03T16:40:58;101062.13;;;28.31;81.61
5883;BME280;2967;51.488;6.618;2022-08-03T16:46:00;101061.91;;;28.26;79.58
5883;BME280;2967;51.488;6.618;2022-08-03T16:51:03;101059.78;;;28.15;79.09
5883;BME280;2967;51.488;6.618;2022-08-03T16:56:07;101057.50;;;28.12;81.55
5883;BME280;2967;51.488;6.618;2022-08-03T17:01:12;101057.25;;;28.07;79.08
5883;BME280;2967;51.488;6.618;2022-08-03T17:06:25;101056.50;;;28.39;75.27
5883;BME280;2967;51.488;6.618;2022-08-03T17:11:38;101045.41;;;28.34;78.06
5883;BME280;2967;51.488;6.618;2022-08-03T17:16:49;101045.56;;;28.20;81.05
5883;BME280;2967;51.488;6.618;2022-08-03T17:21:58;101057.25;;;28.07;81.69
5883;BME280;2967;51.488;6.618;2022-08-03T17:27:08;101051.63;;;28.22;77.63
5883;BME280;2967;51.488;6.618;2022-08-03T17:32:32;101045.75;;;28.05;82.16
5883;BME280;2967;51.488;6.618;2022-08-03T17:37:43;101054.69;;;27.93;83.72
5883;BME280;2967;51.488;6.618;2022-08-03T17:43:01;101047.56;;;27.85;83.93
5883;BME280;2967;51.488;6.618;2022-08-03T17:48:24;101052.56;;;27.75;85.88
5883;BME280;2967;51.488;6.618;2022-08-03T17:53:28;101052.50;;;27.69;85.82
5883;BME280;2967;51.488;6.618;2022-08-03T17:58:47;101057.09;;;27.68;85.66
5883;BME280;2967;51.488;6.618;2022-08-03T18:03:56;101049.09;;;27.60;86.07
5883;BME280;2967;51.488;6.618;2022-08-03T18:09:12;101053.28;;;27.57;87.29
5883;BME280;2967;51.488;6.618;2022-08-03T18:14:42;101045.28;;;27.49;87.57
5883;BME280;2967;51.488;6.618;2022-08-03T18:20:02;101049.66;;;27.43;87.85
5883;BME280;2967;51.488;6.618;2022-08-03T18:25:28;101051.94;;;27.40;86.77
5883;BME280;2967;51.488;6.618;2022-08-03T18:30:47;101054.66;;;27.40;86.71
5883;BME280;2967;51.488;6.618;2022-08-03T18:36:11;101056.28;;;27.34;87.85
5883;BME280;2967;51.488;6.618;2022-08-03T18:41:18;101053.34;;;27.29;87.79
5883;BME280;2967;51.488;6.618;2022-08-03T18:46:55;101049.34;;;27.25;88.82
5883;BME280;2967;51.488;6.618;2022-08-03T18:52:15;101040.53;;;27.17;88.70
5883;BME280;2967;51.488;6.618;2022-08-03T18:57:21;101052.63;;;27.14;89.19
5883;BME280;2967;51.488;6.618;2022-08-03T19:02:40;101053.19;;;27.10;89.18
5883;BME280;2967;51.488;6.618;2022-08-03T19:07:57;101051.91;;;27.06;90.08
5883;BME280;2967;51.488;6.618;2022-08-03T19:13:03;101051.47;;;27.02;89.93
5883;BME280;2967;51.488;6.618;2022-08-03T19:18:15;101059.16;;;26.99;90.25
5883;BME280;2967;51.488;6.618;2022-08-03T19:23:22;101056.66;;;26.97;91.67
5883;BME280;2967;51.488;6.618;2022-08-03T19:28:25;101059.97;;;26.93;89.96
5883;BME280;2967;51.488;6.618;2022-08-03T19:33:33;101061.84;;;26.92;90.14
5883;BME280;2967;51.488;6.618;2022-08-03T19:38:56;101069.53;;;26.89;92.43
5883;BME280;2967;51.488;6.618;2022-08-03T19:44:02;101060.25;;;26.77;89.96
5883;BME280;2967;51.488;6.618;2022-08-03T19:49:13;101075.66;;;26.70;89.19
5883;BME280;2967;51.488;6.618;2022-08-03T19:54:19;101069.34;;;26.63;90.11
5883;BME280;2967;51.488;6.618;2022-08-03T19:59:33;101066.19;;;26.59;90.57
5883;BME280;2967;51.488;6.618;2022-08-03T20:04:52;101070.28;;;26.55;90.44
5883;BME280;2967;51.488;6.618;2022-08-03T20:09:54;101056.72;;;26.34;90.92
5883;BME280;2967;51.488;6.618;2022-08-03T20:14:57;101061.09;;;26.35;91.62
5883;BME280;2967;51.488;6.618;2022-08-03T20:20:03;101061.56;;;26.39;89.76
5883;BME280;2967;51.488;6.618;2022-08-03T20:25:10;101065.81;;;26.27;91.53
5883;BME280;2967;51.488;6.618;2022-08-03T20:30:16;101065.06;;;26.33;91.03
5883;BME280;2967;51.488;6.618;2022-08-03T20:35:29;101061.59;;;26.03;92.44
5883;BME280;2967;51.488;6.618;2022-08-03T20:40:32;101066.00;;;26.04;92.58
5883;BME280;2967;51.488;6.618;2022-08-03T20:45:34;101061.03;;;26.08;90.74
5883;BME280;2967;51.488;6.618;2022-08-03T20:51:00;101065.03;;;25.91;92.71
5883;BME280;2967;51.488;6.618;2022-08-03T20:56:20;101062.97;;;25.93;93.41
5883;BME280;2967;51.488;6.618;2022-08-03T21:01:26;101058.38;;;25.79;94.47
5883;BME280;2967;51.488;6.618;2022-08-03T21:06:41;101048.31;;;25.73;94.46
5883;BME280;2967;51.488;6.618;2022-08-03T21:11:54;101052.47;;;25.75;94.47
5883;BME280;2967;51.488;6.618;2022-08-03T21:17:02;101045.06;;;25.63;94.80
5883;BME280;2967;51.488;6.618;2022-08-03T21:22:22;101048.81;;;25.47;95.96
5883;BME280;2967;51.488;6.618;2022-08-03T21:27:30;101050.50;;;25.48;96.46
5883;BME280;2967;51.488;6.618;2022-08-03T21:32:33;101052.66;;;25.24;96.93
5883;BME280;2967;51.488;6.618;2022-08-03T21:37:39;101044.34;;;25.25;97.54
5883;BME280;2967;51.488;6.618;2022-08-03T21:42:43;101048.31;;;25.15;98.56
5883;BME280;2967;51.488;6.618;2022-08-03T21:47:46;101052.56;;;25.32;97.55
5883;BME280;2967;51.488;6.618;2022-08-03T21:52:51;101037.97;;;25.04;98.87
5883;BME280;2967;51.488;6.618;2022-08-03T21:57:59;101046.34;;;25.09;98.56
5883;BME280;2967;51.488;6.618;2022-08-03T22:03:05;101043.16;;;25.20;96.64
5883;BME280;2967;51.488;6.618;2022-08-03T22:08:19;101045.88;;;25.20;97.34
5883;BME280;2967;51.488;6.618;2022-08-03T22:13:22;101045.75;;;24.84;99.00
5883;BME280;2967;51.488;6.618;2022-08-03T22:18:45;101043.44;;;24.96;97.84
5883;BME280;2967;51.488;6.618;2022-08-03T22:23:50;101041.22;;;25.14;96.38
5883;BME280;2967;51.488;6.618;2022-08-03T22:28:55;101034.69;;;25.08;96.66
5883;BME280;2967;51.488;6.618;2022-08-03T22:33:58;101035.72;;;25.07;95.69
5883;BME280;2967;51.488;6.618;2022-08-03T22:39:03;101037.56;;;25.07;96.04
5883;BME280;2967;51.488;6.618;2022-08-03T22:44:06;101050.28;;;24.92;98.13
5883;BME280;2967;51.488;6.618;2022-08-03T22:49:09;101051.50;;;25.04;97.22
5883;BME280;2967;51.488;6.618;2022-08-03T22:54:13;101041.38;;;24.83;98.08
5883;BME280;2967;51.488;6.618;2022-08-03T22:59:17;101042.09;;;24.63;98.85
5883;BME280;2967;51.488;6.618;2022-08-03T23:04:40;101048.81;;;24.67;98.98
5883;BME280;2967;51.488;6.618;2022-08-03T23:09:47;101047.06;;;24.74;98.93
5883;BME280;2967;51.488;6.618;2022-08-03T23:14:53;101037.66;;;24.84;97.76
5883;BME280;2967;51.488;6.618;2022-08-03T23:19:57;101045.75;;;24.84;98.11
5883;BME280;2967;51.488;6.618;2022-08-03T23:25:06;101044.28;;;24.82;98.08
5883;BME280;2967;51.488;6.618;2022-08-03T23:30:10;101043.06;;;24.99;98.13
5883;BME280;2967;51.488;6.618;2022-08-03T23:35:13;101037.56;;;25.07;96.75
5883;BME280;2967;51.488;6.618;2022-08-03T23:40:58;101037.31;;;25.02;97.11
5883;BME280;2967;51.488;6.618;2022-08-03T23:46:01;101038.47;;;24.48;100.00
5883;BME280;2967;51.488;6.618;2022-08-03T23:51:09;101031.88;;;24.87;99.75
5883;BME280;2967;51.488;6.618;2022-08-03T23:56:22;101022.63;;;24.82;100.00
